Time;durP1;ratioP1;P1;durP2;ratioP2;P2;SDS_P1;SDS_P2;PMS_P1;PMS_P2;Temp;Humidity;BMP_temperature;BMP_pressure;BME280_temperature;BME280_humidity;BME280_pressure;Samples;Min_cycle;Max_cycle;Signal;HPM_P1;HPM_P2
2023/11/07 00:01:38;;;;;;;37.58;6.32;;;31.90;37.60;;;;;;5000472;28;20018;-65
2023/11/07 00:04:08;;;;;;;31.50;5.85;;;31.90;37.80;;;;;;4996366;28;21629;-64
2023/11/07 00:06:34;;;;;;;30.70;7.85;;;31.90;37.60;;;;;;4992451;28;20018;-65
2023/11/07 00:09:01;;;;;;;29.27;6.43;;;31.80;38.00;;;;;;5002595;28;20021;-62
2023/11/07 00:11:28;;;;;;;28.63;6.25;;;31.60;38.70;;;;;;4997842;28;20025;-64
2023/11/07 00:13:54;;;;;;;32.55;6.43;;;31.50;39.10;;;;;;5000263;28;20045;-65
2023/11/07 00:16:21;;;;;;;27.98;6.15;;;31.40;39.60;;;;;;4999258;28;20139;-63
2023/11/07 00:18:48;;;;;;;32.45;7.32;;;31.30;40.00;;;;;;4999975;28;20052;-66
2023/11/07 00:21:14;;;;;;;39.20;7.47;;;31.30;40.30;;;;;;4997489;28;20065;-64
2023/11/07 00:23:41;;;;;;;33.08;7.63;;;31.20;40.40;;;;;;5007224;28;20147;-66
2023/11/07 00:26:07;;;;;;;34.47;10.50;;;31.10;40.70;;;;;;4999010;28;20049;-64
2023/11/07 00:28:36;;;;;;;32.53;7.05;;;30.90;41.30;;;;;;4995279;28;20409;-62
2023/11/07 00:31:02;;;;;;;29.70;7.10;;;30.70;41.70;;;;;;5000892;28;20051;-62
2023/11/07 00:33:29;;;;;;;46.85;7.68;;;30.50;42.30;;;;;;4998531;28;20157;-62
2023/11/07 00:35:55;;;;;;;44.45;7.70;;;30.30;42.80;;;;;;5007117;28;20038;-60
2023/11/07 00:38:22;;;;;;;42.35;7.70;;;30.10;43.20;;;;;;4996717;28;20042;-60
2023/11/07 00:40:48;;;;;;;42.53;7.78;;;29.90;43.50;;;;;;4996357;28;20151;-59
2023/11/07 00:43:15;;;;;;;50.65;8.38;;;29.70;43.80;;;;;;4997745;28;20410;-55
2023/11/07 00:45:41;;;;;;;47.55;8.45;;;29.50;44.20;;;;;;4996722;28;20113;-59
2023/11/07 00:48:08;;;;;;;40.58;8.30;;;29.50;44.70;;;;;;4997207;28;20052;-61
2023/11/07 00:50:34;;;;;;;50.78;9.70;;;29.30;44.80;;;;;;4999806;28;20749;-56
2023/11/07 00:53:01;;;;;;;45.63;9.95;;;29.20;45.40;;;;;;4999830;28;20086;-57
2023/11/07 00:55:28;;;;;;;57.08;10.95;;;29.00;45.80;;;;;;4999502;28;20410;-59
2023/11/07 00:57:54;;;;;;;66.50;11.82;;;28.90;46.20;;;;;;4997771;28;20632;-59
2023/11/07 01:00:21;;;;;;;66.20;11.77;;;28.80;46.60;;;;;;4993406;28;20172;-63
2023/11/07 01:02:48;;;;;;;66.05;11.52;;;28.60;46.80;;;;;;4996860;28;20415;-58
2023/11/07 01:05:15;;;;;;;66.97;12.13;;;28.50;47.00;;;;;;5002046;28;20099;-64
2023/11/07 01:07:41;;;;;;;76.70;12.77;;;28.30;47.50;;;;;;4998172;28;20052;-62
2023/11/07 01:10:08;;;;;;;63.75;13.25;;;28.20;48.00;;;;;;4998680;28;20050;-62
2023/11/07 01:12:34;;;;;;;52.67;13.02;;;28.10;48.20;;;;;;5001933;28;20052;-64
2023/11/07 01:15:03;;;;;;;69.90;13.93;;;28.00;48.50;;;;;;4996239;28;20050;-63
2023/11/07 01:17:29;;;;;;;75.53;14.98;;;27.80;48.90;;;;;;5005952;28;20061;-63
2023/11/07 01:19:56;;;;;;;80.97;14.20;;;27.70;49.40;;;;;;4997499;28;20427;-63
2023/11/07 01:22:22;;;;;;;74.25;13.60;;;27.60;49.50;;;;;;4991092;28;20064;-64
2023/11/07 01:24:49;;;;;;;71.03;14.30;;;27.50;49.80;;;;;;4994668;28;20088;-63
2023/11/07 01:27:17;;;;;;;82.07;15.32;;;27.40;50.00;;;;;;5003756;28;20536;-65
2023/11/07 01:29:43;;;;;;;70.35;13.60;;;27.30;50.60;;;;;;4997767;28;20418;-59
2023/11/07 01:32:10;;;;;;;74.50;14.50;;;27.20;50.80;;;;;;4992990;28;20064;-60
2023/11/07 01:34:36;;;;;;;72.68;14.10;;;27.10;51.10;;;;;;4993466;28;20061;-59
2023/11/07 01:37:03;;;;;;;72.47;12.90;;;27.00;51.60;;;;;;4993686;28;20425;-60
2023/11/07 01:39:29;;;;;;;76.60;13.10;;;26.90;52.10;;;;;;5003361;28;20114;-59
2023/11/07 01:41:56;;;;;;;74.15;14.30;;;26.90;52.30;;;;;;4993342;28;20144;-61
2023/11/07 01:44:28;;;;;;;71.93;14.60;;;26.80;52.80;;;;;;5003071;28;20510;-60
2023/11/07 01:46:56;;;;;;;98.22;14.88;;;26.80;53.30;;;;;;5008912;28;20146;-64
2023/11/07 01:49:24;;;;;;;68.10;14.88;;;26.70;53.60;;;;;;5000284;28;20457;-61
2023/11/07 01:51:53;;;;;;;85.30;15.95;;;26.50;53.60;;;;;;5003590;28;20071;-57
2023/11/07 01:54:21;;;;;;;86.57;16.25;;;26.50;54.10;;;;;;5004333;28;20061;-67
2023/11/07 01:56:49;;;;;;;87.20;14.82;;;26.50;54.50;;;;;;4997933;28;20059;-60
2023/11/07 01:59:16;;;;;;;56.17;12.50;;;26.40;54.70;;;;;;5005786;28;20556;-61
2023/11/07 02:01:43;;;;;;;67.90;12.05;;;26.40;55.70;;;;;;4999162;28;20078;-60
2023/11/07 02:04:10;;;;;;;73.10;24.83;;;26.40;56.60;;;;;;5002088;28;20058;-58
2023/11/07 02:06:36;;;;;;;69.32;14.30;;;26.40;57.80;;;;;;4999400;28;20049;-60
2023/11/07 02:09:06;;;;;;;50.92;12.80;;;26.50;58.90;;;;;;5004067;28;20053;-60
2023/11/07 02:11:32;;;;;;;39.33;14.07;;;26.60;59.70;;;;;;5000419;28;20520;-60
2023/11/07 02:13:59;;;;;;;48.60;19.10;;;26.70;60.30;;;;;;5000237;28;20151;-60
2023/11/07 02:16:25;;;;;;;44.40;9.45;;;26.70;59.40;;;;;;5001077;28;20541;-61
2023/11/07 02:18:51;;;;;;;43.88;8.85;;;26.70;59.70;;;;;;5005171;28;20050;-61
2023/11/07 02:21:18;;;;;;;53.85;9.98;;;26.70;60.10;;;;;;4997644;28;20543;-59
2023/11/07 02:23:44;;;;;;;47.22;9.35;;;26.70;59.80;;;;;;5002481;28;20059;-59
2023/11/07 02:26:11;;;;;;;72.43;11.05;;;26.60;59.80;;;;;;5001812;28;20097;-61
2023/11/07 02:28:38;;;;;;;49.63;9.48;;;26.60;59.70;;;;;;4999428;28;20360;-59
2023/11/07 02:31:05;;;;;;;50.35;10.63;;;26.50;59.20;;;;;;5004726;28;20073;-58
2023/11/07 02:33:32;;;;;;;65.85;11.77;;;26.50;57.90;;;;;;5001820;28;20114;-60
2023/11/07 02:36:00;;;;;;;59.08;11.90;;;26.40;54.80;;;;;;5001326;28;20460;-60
2023/11/07 02:38:27;;;;;;;63.08;12.15;;;26.40;51.90;;;;;;4999682;28;20432;-59
2023/11/07 02:40:53;;;;;;;61.15;11.48;;;26.30;50.70;;;;;;5000074;28;20146;-60
2023/11/07 02:43:19;;;;;;;59.85;10.27;;;26.20;50.10;;;;;;4999774;28;20465;-59
2023/11/07 02:45:46;;;;;;;60.72;9.68;;;26.20;49.50;;;;;;5003203;28;20064;-59
2023/11/07 02:48:13;;;;;;;41.42;9.18;;;26.10;49.30;;;;;;4998482;28;20060;-57
2023/11/07 02:50:40;;;;;;;46.88;9.07;;;26.00;49.20;;;;;;5004050;28;20266;-60
2023/11/07 02:53:06;;;;;;;65.40;9.35;;;26.00;49.50;;;;;;5001220;28;20437;-60
2023/11/07 02:55:33;;;;;;;56.42;8.95;;;25.90;50.20;;;;;;4997935;28;20599;-59
2023/11/07 02:58:00;;;;;;;61.53;10.48;;;25.80;49.70;;;;;;4999912;28;20568;-58
2023/11/07 03:00:26;;;;;;;53.83;8.88;;;25.70;50.10;;;;;;5000320;28;20093;-57
2023/11/07 03:02:54;;;;;;;54.10;8.68;;;25.70;50.30;;;;;;4998816;28;20054;-56
2023/11/07 03:05:21;;;;;;;53.95;9.80;;;25.60;50.90;;;;;;4999788;28;20065;-59
2023/11/07 03:07:47;;;;;;;51.90;9.63;;;25.40;50.70;;;;;;5000207;28;20057;-59
2023/11/07 03:10:14;;;;;;;56.33;9.23;;;25.40;51.60;;;;;;5001486;28;20070;-55
2023/11/07 03:12:41;;;;;;;60.63;9.02;;;25.30;51.30;;;;;;4998773;28;20062;-58
2023/11/07 03:15:08;;;;;;;62.90;9.70;;;25.20;51.70;;;;;;5001750;28;20730;-59
2023/11/07 03:17:34;;;;;;;55.22;9.15;;;25.10;51.80;;;;;;4999947;28;20582;-59
2023/11/07 03:20:01;;;;;;;42.65;9.60;;;25.10;52.20;;;;;;5000659;28;20074;-59
2023/11/07 03:22:28;;;;;;;58.60;9.68;;;25.00;52.40;;;;;;5000527;28;20581;-60
2023/11/07 03:24:55;;;;;;;45.60;9.07;;;24.90;52.50;;;;;;5002744;28;20127;-59
2023/11/07 03:27:21;;;;;;;64.20;9.35;;;24.90;52.60;;;;;;4997306;28;20094;-58
2023/11/07 03:29:47;;;;;;;70.97;9.85;;;24.80;52.60;;;;;;4999892;28;20077;-59
2023/11/07 03:32:14;;;;;;;64.25;9.45;;;24.70;53.10;;;;;;5001717;28;20071;-59
2023/11/07 03:34:41;;;;;;;66.57;9.88;;;24.60;53.30;;;;;;4996013;28;20532;-59
2023/11/07 03:37:07;;;;;;;54.28;10.30;;;24.50;53.50;;;;;;5000457;28;20107;-59
2023/11/07 03:39:34;;;;;;;59.83;10.25;;;24.50;53.60;;;;;;4999139;28;20080;-58
2023/11/07 03:42:01;;;;;;;60.63;10.45;;;24.40;54.10;;;;;;4998956;28;20101;-59
2023/11/07 03:44:27;;;;;;;66.60;10.93;;;24.30;54.10;;;;;;5006046;28;20124;-60
2023/11/07 03:46:54;;;;;;;47.78;10.65;;;24.30;53.90;;;;;;5000940;28;20065;-59
2023/11/07 03:49:20;;;;;;;59.38;12.38;;;24.20;54.00;;;;;;4999332;28;20069;-60
2023/11/07 03:51:47;;;;;;;51.80;12.10;;;24.10;54.20;;;;;;4998923;28;20557;-59
2023/11/07 03:54:14;;;;;;;41.03;11.57;;;24.10;54.40;;;;;;4997187;28;20081;-58
2023/11/07 03:56:40;;;;;;;58.03;11.88;;;24.00;54.40;;;;;;5003708;28;20074;-60
2023/11/07 03:59:07;;;;;;;50.63;13.18;;;23.90;54.70;;;;;;4997808;28;20127;-60
2023/11/07 04:01:37;;;;;;;60.92;12.95;;;23.90;54.60;;;;;;5001157;28;20086;-60
2023/11/07 04:04:04;;;;;;;57.05;11.85;;;23.80;54.80;;;;;;4998895;28;20455;-58
2023/11/07 04:06:31;;;;;;;46.17;11.57;;;23.70;55.00;;;;;;4999651;28;20074;-57
2023/11/07 04:08:58;;;;;;;66.55;11.82;;;23.70;55.00;;;;;;4997714;28;20641;-61
2023/11/07 04:11:25;;;;;;;66.45;12.25;;;23.60;55.70;;;;;;5021099;23;21486;-60
2023/11/07 04:13:52;;;;;;;70.28;13.55;;;23.50;55.80;;;;;;4988772;28;20106;-59
2023/11/07 04:16:19;;;;;;;59.25;12.02;;;23.50;56.20;;;;;;4989826;28;20083;-59
2023/11/07 04:18:46;;;;;;;64.20;11.98;;;23.30;56.50;;;;;;4989610;28;20083;-60
2023/11/07 04:21:12;;;;;;;61.42;12.80;;;23.20;56.50;;;;;;4989850;28;20522;-60
2023/11/07 04:23:40;;;;;;;67.20;11.85;;;23.20;56.50;;;;;;4989387;28;20172;-58
2023/11/07 04:26:07;;;;;;;66.50;12.80;;;23.10;56.60;;;;;;4988601;28;20080;-59
2023/11/07 04:28:37;;;;;;;50.60;11.73;;;23.10;56.80;;;;;;4986474;28;20168;-59
2023/11/07 04:31:04;;;;;;;72.93;12.68;;;23.00;56.90;;;;;;4988716;28;20563;-60
2023/11/07 04:33:33;;;;;;;53.38;12.27;;;22.90;57.00;;;;;;4989750;28;20077;-58
2023/11/07 04:36:01;;;;;;;64.88;12.13;;;22.80;56.80;;;;;;4990278;28;20078;-59
2023/11/07 04:38:30;;;;;;;52.90;11.02;;;22.80;57.00;;;;;;4988033;28;20168;-57
2023/11/07 04:40:56;;;;;;;64.55;12.57;;;22.80;57.10;;;;;;4989179;28;20529;-59
2023/11/07 04:43:23;;;;;;;64.97;11.63;;;22.70;56.90;;;;;;4989162;28;20168;-58
2023/11/07 04:45:49;;;;;;;55.90;11.80;;;22.70;56.50;;;;;;4986776;28;20081;-59
2023/11/07 04:48:16;;;;;;;59.95;10.77;;;22.70;55.80;;;;;;4988508;28;20134;-60
2023/11/07 04:50:44;;;;;;;74.57;12.75;;;22.70;55.10;;;;;;4986702;28;20554;-60
2023/11/07 04:53:10;;;;;;;77.95;13.25;;;22.60;55.10;;;;;;4987024;28;20104;-61
2023/11/07 04:55:37;;;;;;;60.25;12.07;;;22.60;55.40;;;;;;4990328;28;20169;-57
2023/11/07 04:58:03;;;;;;;68.07;13.45;;;22.60;55.80;;;;;;4988563;28;20075;-60
2023/11/07 05:00:30;;;;;;;73.63;15.07;;;22.50;56.00;;;;;;4988140;28;20547;-58
2023/11/07 05:02:56;;;;;;;66.70;14.63;;;22.50;55.60;;;;;;4989127;28;20080;-59
2023/11/07 05:05:23;;;;;;;55.20;15.88;;;22.40;55.80;;;;;;4989309;28;20073;-58
2023/11/07 05:07:50;;;;;;;90.22;16.55;;;22.40;55.50;;;;;;4988501;28;20088;-58
2023/11/07 05:10:17;;;;;;;66.25;15.05;;;22.30;55.50;;;;;;4988157;28;20140;-59
2023/11/07 05:12:43;;;;;;;65.95;14.15;;;22.30;56.10;;;;;;4988747;28;20094;-56
2023/11/07 05:15:10;;;;;;;59.75;14.00;;;22.20;56.70;;;;;;4986388;28;20082;-58
2023/11/07 05:17:37;;;;;;;53.97;14.77;;;22.10;56.60;;;;;;4987610;28;20087;-56
2023/11/07 05:20:08;;;;;;;60.58;15.57;;;22.10;56.40;;;;;;4987809;28;20086;-58
2023/11/07 05:22:34;;;;;;;64.38;14.85;;;22.10;56.60;;;;;;4987683;28;20117;-60
2023/11/07 05:25:01;;;;;;;63.92;15.98;;;22.10;57.30;;;;;;4987064;28;20076;-60
2023/11/07 05:27:27;;;;;;;83.22;17.35;;;22.00;57.70;;;;;;4989568;28;20079;-60
2023/11/07 05:29:54;;;;;;;97.43;18.00;;;22.00;58.50;;;;;;4987770;28;20539;-59
2023/11/07 05:32:21;;;;;;;77.05;17.60;;;21.90;58.00;;;;;;4990030;28;20074;-60
2023/11/07 05:34:47;;;;;;;78.63;16.50;;;21.80;58.00;;;;;;4988640;28;20165;-60
2023/11/07 05:37:17;;;;;;;86.28;16.85;;;21.80;57.70;;;;;;4988735;28;20093;-58
2023/11/07 05:39:44;;;;;;;70.35;18.45;;;21.80;57.70;;;;;;4987714;28;20176;-59
2023/11/07 05:42:11;;;;;;;72.00;16.15;;;21.70;57.60;;;;;;4987613;28;20095;-59
2023/11/07 05:44:38;;;;;;;65.03;15.60;;;21.60;57.20;;;;;;4989042;28;20089;-59
2023/11/07 05:47:06;;;;;;;55.78;15.43;;;21.60;57.80;;;;;;4985303;28;20094;-59
2023/11/07 05:49:34;;;;;;;64.93;16.08;;;21.60;57.80;;;;;;4986423;28;20102;-59
2023/11/07 05:52:03;;;;;;;62.03;15.63;;;21.50;58.30;;;;;;4988997;28;20140;-59
2023/11/07 05:54:29;;;;;;;59.28;16.08;;;21.50;58.20;;;;;;4988576;28;20169;-61
2023/11/07 05:56:56;;;;;;;71.80;16.25;;;21.40;58.10;;;;;;4988340;28;20090;-60
2023/11/07 05:59:25;;;;;;;66.95;16.10;;;21.40;59.20;;;;;;4987699;28;20073;-60
2023/11/07 06:01:52;;;;;;;66.22;15.45;;;21.30;58.40;;;;;;4987567;28;20145;-59
2023/11/07 06:04:36;;;;;;;73.10;16.83;;;21.30;58.50;;;;;;4988108;28;20165;-61
2023/11/07 06:07:03;;;;;;;75.25;16.23;;;21.30;58.00;;;;;;4986130;28;20161;-59
2023/11/07 06:09:30;;;;;;;64.53;15.77;;;21.30;58.50;;;;;;4987651;28;20188;-60
2023/11/07 06:11:57;;;;;;;66.38;14.68;;;21.30;58.80;;;;;;4985727;28;20097;-59
2023/11/07 06:14:24;;;;;;;74.50;15.95;;;21.20;58.30;;;;;;4988489;28;20082;-61
2023/11/07 06:16:54;;;;;;;57.80;15.20;;;21.20;58.50;;;;;;4988186;28;20082;-59
2023/11/07 06:19:24;;;;;;;74.35;23.27;;;21.20;58.00;;;;;;4984313;28;20079;-59
2023/11/07 06:21:50;;;;;;;83.35;33.40;;;21.10;57.80;;;;;;4986997;28;20103;-60
2023/11/07 06:24:18;;;;;;;66.70;17.15;;;21.10;57.70;;;;;;4987128;28;20109;-59
2023/11/07 06:26:48;;;;;;;63.47;15.95;;;21.10;57.90;;;;;;4986301;28;20139;-61
2023/11/07 06:29:15;;;;;;;72.82;15.20;;;21.10;58.20;;;;;;4989254;28;20081;-64
2023/11/07 06:31:45;;;;;;;60.00;15.18;;;21.00;58.10;;;;;;4990645;28;20082;-59
2023/11/07 06:34:14;;;;;;;60.33;13.73;;;21.00;58.60;;;;;;4988852;28;20085;-59
2023/11/07 06:36:40;;;;;;;62.83;15.70;;;20.90;57.90;;;;;;4989813;28;20097;-61
2023/11/07 06:39:07;;;;;;;55.60;15.93;;;20.90;58.10;;;;;;4989761;28;20085;-60
2023/11/07 06:41:34;;;;;;;59.90;18.20;;;20.90;58.00;;;;;;4988326;28;20097;-60
2023/11/07 06:44:01;;;;;;;70.63;18.90;;;20.90;57.50;;;;;;4990700;28;20285;-57
2023/11/07 06:46:27;;;;;;;61.10;18.83;;;20.80;57.30;;;;;;4989796;28;20161;-58
2023/11/07 06:48:54;;;;;;;56.30;19.50;;;20.80;57.70;;;;;;4989859;28;20087;-60
2023/11/07 06:51:21;;;;;;;70.90;18.98;;;20.80;57.90;;;;;;4989177;28;20082;-59
2023/11/07 06:53:47;;;;;;;63.65;20.63;;;20.80;57.70;;;;;;4987713;28;20074;-58
2023/11/07 06:56:14;;;;;;;77.00;20.27;;;20.70;57.70;;;;;;4989898;28;20086;-58
2023/11/07 06:58:41;;;;;;;58.63;20.55;;;20.70;57.60;;;;;;4988460;28;20165;-59
2023/11/07 07:01:13;;;;;;;70.85;22.55;;;20.70;57.50;;;;;;4988728;28;20094;-59
2023/11/07 07:03:40;;;;;;;89.88;25.05;;;20.70;58.00;;;;;;4989168;28;20168;-58
2023/11/07 07:06:07;;;;;;;79.03;23.52;;;20.70;58.00;;;;;;4972700;28;20119;-60
2023/11/07 07:08:34;;;;;;;87.43;23.48;;;20.60;58.40;;;;;;4987471;28;20085;-59
2023/11/07 07:11:00;;;;;;;79.40;24.77;;;20.60;58.20;;;;;;4989525;28;20089;-58
2023/11/07 07:13:31;;;;;;;83.40;24.08;;;20.50;58.40;;;;;;4990060;28;20098;-60
2023/11/07 07:15:59;;;;;;;87.82;25.15;;;20.50;58.60;;;;;;4988105;28;20193;-56
2023/11/07 07:18:27;;;;;;;88.30;23.88;;;20.40;58.50;;;;;;4989773;28;20637;-58
2023/11/07 07:20:55;;;;;;;91.57;23.23;;;20.50;58.70;;;;;;4984693;28;20117;-59
2023/11/07 07:23:24;;;;;;;83.97;24.08;;;20.50;59.30;;;;;;4987927;28;20148;-59
2023/11/07 07:25:53;;;;;;;90.85;24.13;;;20.40;59.10;;;;;;4990474;28;20121;-59
2023/11/07 07:28:20;;;;;;;83.22;23.25;;;20.30;58.90;;;;;;4989516;28;20094;-59
2023/11/07 07:30:48;;;;;;;85.90;25.13;;;20.30;59.10;;;;;;4988911;28;20088;-60
2023/11/07 07:33:16;;;;;;;80.10;25.65;;;20.30;59.40;;;;;;4988443;28;20109;-60
2023/11/07 07:35:45;;;;;;;89.90;25.15;;;20.30;59.10;;;;;;4987074;28;20454;-59
2023/11/07 07:38:11;;;;;;;89.82;26.30;;;20.20;59.10;;;;;;4989226;28;20152;-60
2023/11/07 07:40:38;;;;;;;106.40;26.02;;;20.20;59.60;;;;;;4986978;28;20180;-59
2023/11/07 07:43:11;;;;;;;105.18;27.38;;;20.20;60.00;;;;;;4987826;28;20078;-59
2023/11/07 07:45:42;;;;;;;95.43;26.27;;;20.20;60.00;;;;;;4987089;28;20088;-59
2023/11/07 07:48:10;;;;;;;98.47;26.60;;;20.10;60.30;;;;;;4987998;28;20079;-60
2023/11/07 07:50:41;;;;;;;109.18;25.23;;;20.00;60.20;;;;;;4989318;28;20077;-61
2023/11/07 07:53:09;;;;;;;100.18;25.73;;;20.00;60.00;;;;;;4988839;28;20082;-60
2023/11/07 07:55:35;;;;;;;91.13;23.80;;;20.00;60.00;;;;;;4989227;28;20118;-57
2023/11/07 07:58:02;;;;;;;115.18;26.58;;;20.00;59.70;;;;;;4987562;28;20157;-59
2023/11/07 08:00:31;;;;;;;108.53;25.52;;;19.90;60.30;;;;;;4987799;28;20087;-58
2023/11/07 08:02:59;;;;;;;109.57;25.48;;;19.90;60.00;;;;;;4987878;28;20077;-60
2023/11/07 08:05:27;;;;;;;99.10;24.92;;;19.90;60.00;;;;;;4988807;28;20078;-58
2023/11/07 08:07:54;;;;;;;88.80;24.75;;;19.90;60.60;;;;;;4987431;28;20079;-58
2023/11/07 08:10:22;;;;;;;94.65;25.75;;;19.80;61.10;;;;;;4988861;28;20079;-58
2023/11/07 08:12:54;;;;;;;93.47;26.27;;;19.80;61.40;;;;;;4988960;28;20090;-59
2023/11/07 08:15:20;;;;;;;107.18;26.25;;;19.80;61.40;;;;;;4986876;28;20083;-59
2023/11/07 08:17:50;;;;;;;119.60;26.08;;;19.70;61.20;;;;;;4989260;28;20089;-58
2023/11/07 08:20:19;;;;;;;85.10;24.60;;;19.70;62.00;;;;;;4989100;28;20532;-62
2023/11/07 08:22:47;;;;;;;97.05;29.38;;;19.60;61.80;;;;;;4985625;28;20108;-58
2023/11/07 08:25:18;;;;;;;97.45;27.52;;;19.60;62.40;;;;;;4986416;28;20142;-57
2023/11/07 08:27:45;;;;;;;102.28;28.63;;;19.60;62.70;;;;;;4986959;28;20432;-58
2023/11/07 08:30:14;;;;;;;99.00;30.02;;;19.60;63.10;;;;;;4988922;28;20074;-58
2023/11/07 08:32:44;;;;;;;95.28;32.40;;;19.60;63.60;;;;;;4988328;28;20161;-58
2023/11/07 08:35:18;;;;;;;108.70;31.70;;;19.60;63.60;;;;;;4987419;28;20129;-59
2023/11/07 08:37:52;;;;;;;81.05;29.10;;;19.60;64.20;;;;;;4988281;28;20074;-59
2023/11/07 08:40:23;;;;;;;92.25;29.23;;;19.50;65.30;;;;;;4986769;28;20165;-61
2023/11/07 08:42:51;;;;;;;97.38;27.95;;;19.60;66.30;;;;;;4988085;28;20096;-60
2023/11/07 08:45:20;;;;;;;98.10;26.20;;;19.50;66.50;;;;;;4988013;28;20436;-59
2023/11/07 08:47:51;;;;;;;89.15;27.67;;;19.40;66.90;;;;;;4986992;28;20084;-59
2023/11/07 08:50:19;;;;;;;99.18;27.42;;;19.40;67.10;;;;;;4987027;28;20162;-59
2023/11/07 08:52:49;;;;;;;96.00;26.58;;;19.40;67.70;;;;;;4987948;28;20557;-59
2023/11/07 08:55:16;;;;;;;100.03;26.80;;;19.30;68.00;;;;;;4987834;28;20089;-59
2023/11/07 08:57:46;;;;;;;94.13;25.75;;;19.30;68.90;;;;;;4988804;28;20081;-59
2023/11/07 09:00:21;;;;;;;97.80;25.63;;;19.20;70.00;;;;;;4986081;28;20174;-58
2023/11/07 09:02:49;;;;;;;85.15;24.60;;;19.10;69.70;;;;;;4986748;28;20090;-61
2023/11/07 09:05:16;;;;;;;79.70;24.58;;;19.20;70.30;;;;;;4987794;28;20087;-60
2023/11/07 09:07:43;;;;;;;96.63;25.42;;;19.10;70.80;;;;;;4987150;28;20076;-59
2023/11/07 09:10:13;;;;;;;85.03;26.77;;;19.10;71.30;;;;;;4985850;28;20111;-59
2023/11/07 09:12:41;;;;;;;87.97;25.35;;;19.00;71.60;;;;;;4986300;28;20088;-60
2023/11/07 09:15:12;;;;;;;83.82;25.15;;;18.90;72.90;;;;;;4987548;28;20095;-60
2023/11/07 09:17:41;;;;;;;82.07;25.40;;;18.90;72.50;;;;;;4986607;28;20208;-59
2023/11/07 09:20:13;;;;;;;77.22;24.92;;;18.90;72.80;;;;;;4987374;28;20472;-60
2023/11/07 09:22:41;;;;;;;93.75;25.63;;;18.90;73.00;;;;;;4987837;28;20183;-60
2023/11/07 09:25:12;;;;;;;77.65;25.45;;;18.90;73.70;;;;;;4983766;28;20091;-57
2023/11/07 09:27:39;;;;;;;72.40;22.73;;;18.80;74.20;;;;;;4986921;28;21399;-58
2023/11/07 09:30:10;;;;;;;80.20;25.25;;;18.70;74.60;;;;;;4986656;28;20080;-58
2023/11/07 09:32:38;;;;;;;77.72;23.30;;;18.70;75.30;;;;;;4987983;28;20159;-58
2023/11/07 09:35:08;;;;;;;82.63;23.90;;;18.70;75.80;;;;;;4985476;28;20080;-57
2023/11/07 09:37:39;;;;;;;85.82;25.98;;;18.60;76.40;;;;;;4987051;28;20084;-56
2023/11/07 09:40:10;;;;;;;91.05;25.08;;;18.60;78.10;;;;;;4987967;28;20083;-58
2023/11/07 09:42:40;;;;;;;69.72;24.30;;;18.70;78.60;;;;;;4987095;28;20084;-58
2023/11/07 09:45:15;;;;;;;86.47;25.08;;;18.80;79.40;;;;;;4985785;28;20076;-58
2023/11/07 09:47:51;;;;;;;82.60;24.33;;;18.80;79.90;;;;;;4989151;28;20146;-59
2023/11/07 09:50:20;;;;;;;74.43;24.65;;;18.70;80.90;;;;;;4985000;28;20083;-60
2023/11/07 09:52:54;;;;;;;79.38;24.73;;;18.70;82.90;;;;;;4987536;28;20099;-59
2023/11/07 09:55:23;;;;;;;73.18;24.27;;;18.80;83.80;;;;;;4987649;28;20087;-58
2023/11/07 09:58:00;;;;;;;71.85;24.98;;;18.70;86.00;;;;;;4988372;28;20580;-58
2023/11/07 10:00:30;;;;;;;71.13;25.80;;;18.80;86.30;;;;;;4985839;28;20506;-59
2023/11/07 10:02:58;;;;;;;74.53;24.45;;;18.70;87.20;;;;;;4988253;28;20084;-60
2023/11/07 10:05:26;;;;;;;75.85;24.83;;;18.70;88.90;;;;;;4990401;28;20094;-60
2023/11/07 10:07:57;;;;;;;74.82;24.75;;;18.80;89.40;;;;;;4990693;28;20081;-60
2023/11/07 10:10:24;;;;;;;75.10;25.90;;;18.70;89.80;;;;;;4991273;28;20557;-60
2023/11/07 10:12:51;;;;;;;81.95;26.30;;;18.90;90.50;;;;;;4991118;28;20099;-60
2023/11/07 10:15:25;;;;;;;73.38;24.58;;;18.80;90.80;;;;;;4990122;28;20076;-59
2023/11/07 10:18:06;;;;;;;70.30;26.77;;;18.80;91.40;;;;;;4992107;28;20075;-59
2023/11/07 10:20:35;;;;;;;81.50;29.08;;;18.70;91.40;;;;;;4990668;28;20122;-60
2023/11/07 10:23:02;;;;;;;90.43;34.40;;;18.80;92.10;;;;;;4991831;28;20158;-58
2023/11/07 10:25:31;;;;;;;93.40;38.38;;;18.80;92.20;;;;;;4989242;28;20092;-58
2023/11/07 10:28:05;;;;;;;94.28;34.90;;;18.80;92.30;;;;;;4988657;28;20090;-60
2023/11/07 10:30:46;;;;;;;99.00;36.15;;;18.80;92.50;;;;;;4990956;28;20171;-60
2023/11/07 10:33:34;;;;;;;88.25;34.42;;;18.80;92.50;;;;;;4992006;28;20087;-59
2023/11/07 10:36:04;;;;;;;106.60;36.10;;;18.80;92.80;;;;;;4989584;28;20491;-58
2023/11/07 10:38:31;;;;;;;92.88;33.45;;;18.70;93.40;;;;;;4989924;28;20144;-60
2023/11/07 10:41:01;;;;;;;92.05;35.15;;;18.60;93.50;;;;;;4990052;28;20122;-60
2023/11/07 10:43:41;;;;;;;89.07;32.88;;;18.50;94.00;;;;;;4990052;28;20599;-58
2023/11/07 10:46:12;;;;;;;87.03;32.90;;;18.50;94.40;;;;;;4990745;28;20527;-60
2023/11/07 10:48:41;;;;;;;98.22;34.78;;;18.50;94.70;;;;;;4991591;28;20075;-59
2023/11/07 10:51:15;;;;;;;87.95;32.63;;;18.50;94.80;;;;;;4989955;28;20146;-58
2023/11/07 10:53:42;;;;;;;96.25;31.92;;;18.40;94.90;;;;;;4991245;28;20085;-59
2023/11/07 10:56:14;;;;;;;102.95;36.17;;;18.50;94.90;;;;;;4990812;28;20072;-57
2023/11/07 10:58:44;;;;;;;88.88;32.05;;;18.50;95.10;;;;;;4989976;28;20084;-60
2023/11/07 11:01:11;;;;;;;101.43;34.33;;;18.50;95.30;;;;;;4989965;28;20103;-60
2023/11/07 11:03:40;;;;;;;98.45;36.00;;;18.40;95.50;;;;;;4990327;28;20084;-58
2023/11/07 11:06:08;;;;;;;90.72;35.72;;;18.30;95.40;;;;;;4991563;28;20079;-60
2023/11/07 11:08:37;;;;;;;103.25;38.08;;;18.20;95.70;;;;;;4990992;28;20600;-59
2023/11/07 11:11:06;;;;;;;101.00;38.05;;;18.20;95.80;;;;;;4989282;28;20084;-58
2023/11/07 11:13:32;;;;;;;99.22;39.92;;;18.30;96.00;;;;;;4990645;28;20098;-61
2023/11/07 11:16:00;;;;;;;92.75;41.28;;;18.20;96.10;;;;;;4989983;28;20111;-60
2023/11/07 11:18:34;;;;;;;105.88;43.20;;;18.10;96.40;;;;;;4988406;28;20493;-60
2023/11/07 11:21:16;;;;;;;97.88;42.00;;;18.10;96.70;;;;;;4990250;28;20700;-60
2023/11/07 11:24:07;;;;;;;125.20;41.20;;;18.10;97.30;;;;;;4990381;28;20164;-60
2023/11/07 11:27:09;;;;;;;102.10;41.83;;;18.10;97.60;;;;;;4986657;28;20084;-60
2023/11/07 11:29:47;;;;;;;88.38;38.25;;;18.00;97.80;;;;;;4987917;28;20084;-60
2023/11/07 11:32:24;;;;;;;86.40;37.40;;;18.00;98.30;;;;;;4988554;28;20666;-58
2023/11/07 11:34:57;;;;;;;97.18;40.15;;;17.70;98.30;;;;;;4987241;28;20088;-60
2023/11/07 11:37:25;;;;;;;98.05;40.25;;;17.80;99.00;;;;;;4986492;28;20219;-62
2023/11/07 11:39:53;;;;;;;96.25;38.67;;;17.80;99.00;;;;;;4986797;28;20114;-60
2023/11/07 11:42:20;;;;;;;95.95;38.58;;;17.80;98.80;;;;;;4986719;28;20131;-58
2023/11/07 11:45:25;;;;;;;80.85;35.92;;;17.80;98.90;;;;;;4987256;28;20080;-57
2023/11/07 11:47:51;;;;;;;88.05;36.83;;;17.70;99.10;;;;;;4987018;28;20095;-59
2023/11/07 11:50:19;;;;;;;96.93;39.40;;;17.70;99.20;;;;;;4988177;28;20089;-59
2023/11/07 11:52:46;;;;;;;78.50;36.47;;;17.70;99.30;;;;;;4987383;28;20575;-57
2023/11/07 11:55:14;;;;;;;94.78;37.25;;;17.70;99.20;;;;;;4985893;28;20084;-60
2023/11/07 11:58:24;;;;;;;88.72;38.60;;;17.70;99.00;;;;;;4987792;28;20080;-58
2023/11/07 12:00:51;;;;;;;84.15;35.88;;;17.70;99.20;;;;;;4984139;28;20105;-59
2023/11/07 12:03:20;;;;;;;90.15;35.08;;;17.60;99.70;;;;;;4988071;28;20092;-59
2023/11/07 12:06:06;;;;;;;100.85;38.75;;;17.60;99.70;;;;;;4988907;28;20459;-61
2023/11/07 12:08:35;;;;;;;87.80;36.33;;;17.60;99.60;;;;;;4987803;28;20108;-58
2023/11/07 12:11:02;;;;;;;91.60;38.50;;;17.60;99.80;;;;;;4987323;28;20188;-59
2023/11/07 12:13:31;;;;;;;83.35;36.88;;;17.60;99.90;;;;;;4989452;28;20111;-59
2023/11/07 12:16:19;;;;;;;84.18;36.65;;;17.50;99.90;;;;;;4989119;28;20085;-57
2023/11/07 12:18:47;;;;;;;92.65;36.40;;;17.50;99.90;;;;;;4989187;28;20077;-61
2023/11/07 12:21:23;;;;;;;82.07;35.65;;;17.40;99.90;;;;;;4987989;28;20088;-59
2023/11/07 12:23:52;;;;;;;86.78;34.55;;;17.50;99.90;;;;;;4988950;28;20084;-58
2023/11/07 12:26:20;;;;;;;88.72;35.40;;;17.40;99.90;;;;;;4987685;28;20079;-59
2023/11/07 12:28:47;;;;;;;82.13;34.22;;;17.50;99.90;;;;;;4984649;28;20104;-58
2023/11/07 12:31:13;;;;;;;80.13;33.45;;;17.50;99.90;;;;;;4987822;28;20492;-59
2023/11/07 12:33:41;;;;;;;93.75;37.97;;;17.50;99.90;;;;;;4989135;28;20092;-60
2023/11/07 12:36:13;;;;;;;85.53;35.85;;;17.40;99.90;;;;;;4988289;28;20087;-60